createdAt,value
2022-08-12T00:03:05.477Z,81
2022-08-12T00:08:06.063Z,81
2022-08-12T00:13:05.302Z,82
2022-08-12T00:18:07.281Z,82
2022-08-12T00:23:05.507Z,83
2022-08-12T00:28:05.708Z,83
2022-08-12T00:33:06.074Z,83
2022-08-12T00:38:06.030Z,83
2022-08-12T00:43:05.518Z,84
2022-08-12T00:48:05.749Z,84
2022-08-12T00:53:06.040Z,84
2022-08-12T00:58:06.172Z,84
2022-08-12T01:03:06.193Z,85
2022-08-12T01:08:05.584Z,85
2022-08-12T01:13:20.662Z,85
2022-08-12T01:18:06.116Z,85
2022-08-12T01:23:05.549Z,86
2022-08-12T01:28:05.720Z,86
2022-08-12T01:33:05.721Z,86
2022-08-12T01:38:06.163Z,86
2022-08-12T01:43:05.420Z,87
2022-08-12T01:48:05.648Z,87
2022-08-12T01:53:05.708Z,87
2022-08-12T01:58:05.903Z,87
2022-08-12T02:03:05.747Z,87
2022-08-12T02:08:06.095Z,87
2022-08-12T02:13:05.404Z,87
2022-08-12T02:18:05.728Z,87
2022-08-12T02:23:06.086Z,87
2022-08-12T02:28:08.423Z,87
2022-08-12T02:33:05.830Z,87
2022-08-12T02:38:06.184Z,87
2022-08-12T02:43:05.912Z,87
2022-08-12T02:48:06.334Z,87
2022-08-12T02:53:05.907Z,87
2022-08-12T02:58:12.310Z,87
2022-08-12T03:03:06.138Z,88
2022-08-12T03:08:12.286Z,88
2022-08-12T03:13:06.220Z,88
2022-08-12T03:18:29.043Z,88
2022-08-12T03:23:05.586Z,88
2022-08-12T03:28:06.155Z,88
2022-08-12T03:33:06.348Z,88
2022-08-12T03:38:09.530Z,88
2022-08-12T03:43:05.903Z,88
2022-08-12T03:48:06.360Z,88
2022-08-12T03:53:05.780Z,89
2022-08-12T03:58:06.077Z,89
2022-08-12T04:03:12.925Z,89
2022-08-12T04:08:05.584Z,89
2022-08-12T04:13:06.364Z,89
2022-08-12T04:18:08.249Z,89
2022-08-12T04:23:05.962Z,89
2022-08-12T04:28:14.193Z,89
2022-08-12T04:33:06.439Z,89
2022-08-12T04:38:06.477Z,89
2022-08-12T04:43:05.768Z,89
2022-08-12T04:48:05.944Z,89
2022-08-12T04:53:06.350Z,89
2022-08-12T04:58:05.556Z,89
2022-08-12T05:03:06.295Z,88
2022-08-12T05:08:05.635Z,88
2022-08-12T05:13:06.131Z,86
2022-08-12T05:18:20.478Z,86
2022-08-12T05:23:13.729Z,83
2022-08-12T05:28:06.631Z,83
2022-08-12T05:33:05.647Z,79
2022-08-12T05:38:06.427Z,79
2022-08-12T05:43:05.880Z,77
2022-08-12T05:48:06.328Z,77
2022-08-12T05:53:06.406Z,76
2022-08-12T05:58:05.795Z,76
2022-08-12T06:03:06.466Z,74
2022-08-12T06:08:05.779Z,74
2022-08-12T06:13:06.556Z,73
2022-08-12T06:18:16.561Z,73
2022-08-12T06:23:05.731Z,72
2022-08-12T06:28:08.625Z,72
2022-08-12T06:33:23.038Z,72
2022-08-12T06:38:05.706Z,72
2022-08-12T06:43:05.944Z,70
2022-08-12T06:48:06.421Z,70
2022-08-12T06:53:05.641Z,68
2022-08-12T06:58:10.877Z,68
2022-08-12T07:03:23.794Z,66
2022-08-12T07:08:10.574Z,66
2022-08-12T07:13:05.733Z,65
2022-08-12T07:18:06.101Z,65
2022-08-12T07:23:06.321Z,62
2022-08-12T07:28:17.314Z,62
2022-08-12T07:33:06.652Z,62
2022-08-12T07:38:06.668Z,62
2022-08-12T07:43:05.850Z,61
2022-08-12T07:48:06.166Z,61
2022-08-12T07:53:06.452Z,60
2022-08-12T07:58:06.632Z,60
2022-08-12T08:03:05.688Z,59
2022-08-12T08:08:05.972Z,59
2022-08-12T08:13:06.199Z,58
2022-08-12T08:18:06.476Z,58
2022-08-12T08:23:05.715Z,58
2022-08-12T08:28:05.849Z,58
2022-08-12T08:34:49.205Z,56
2022-08-12T08:38:05.896Z,56
2022-08-12T08:43:06.500Z,55
2022-08-12T08:48:05.774Z,55
2022-08-12T08:53:06.005Z,54
2022-08-12T08:58:06.311Z,54
2022-08-12T09:05:15.351Z,52
2022-08-12T09:13:06.545Z,49
2022-08-12T09:18:09.536Z,49
2022-08-12T09:28:11.017Z,49
2022-08-12T09:34:31.401Z,47
2022-08-12T09:38:29.911Z,47
2022-08-12T09:43:19.092Z,45
2022-08-12T09:48:09.060Z,45
2022-08-12T09:53:16.151Z,45
2022-08-12T09:59:01.329Z,45
2022-08-12T10:03:06.705Z,44
2022-08-12T10:08:06.538Z,44
2022-08-12T10:13:14.333Z,43
2022-08-12T10:18:08.259Z,43
2022-08-12T10:23:06.859Z,40
2022-08-12T10:28:24.990Z,40
2022-08-12T10:33:32.129Z,41
2022-08-12T10:38:41.405Z,41
2022-08-12T10:43:08.160Z,39
2022-08-12T10:48:34.623Z,39
2022-08-12T10:53:09.611Z,38
2022-08-12T10:58:31.630Z,38
2022-08-12T11:04:39.352Z,39
2022-08-12T11:08:43.654Z,39
2022-08-12T11:13:09.849Z,39
2022-08-12T11:18:18.085Z,39
2022-08-12T11:23:37.798Z,40
2022-08-12T11:28:05.974Z,40
2022-08-12T11:33:24.021Z,38
2022-08-12T11:38:09.407Z,38
2022-08-12T11:43:20.598Z,38
2022-08-12T11:48:06.931Z,38
2022-08-12T11:54:01.168Z,35
2022-08-12T12:03:05.970Z,35
2022-08-12T12:08:45.862Z,35
2022-08-12T12:14:11.449Z,36
2022-08-12T12:18:05.940Z,36
2022-08-12T12:23:29.474Z,35
2022-08-12T12:28:06.769Z,35
2022-08-12T12:33:05.847Z,34
2022-08-12T12:38:12.941Z,34
2022-08-12T12:43:07.251Z,35
2022-08-12T12:48:08.146Z,35
2022-08-12T12:53:06.215Z,35
2022-08-12T12:58:06.603Z,35
2022-08-12T13:03:19.415Z,35
2022-08-12T13:08:05.996Z,35
2022-08-12T13:14:12.656Z,34
2022-08-12T13:18:08.270Z,34
2022-08-12T13:23:37.799Z,34
2022-08-12T13:28:06.564Z,34
2022-08-12T13:33:17.984Z,32
2022-08-12T13:38:06.280Z,32
2022-08-12T13:43:06.483Z,33
2022-08-12T13:48:06.558Z,33
2022-08-12T13:53:39.931Z,33
2022-08-12T13:58:12.795Z,33
2022-08-12T14:03:10.717Z,32
2022-08-12T14:08:05.905Z,32
2022-08-12T14:13:10.581Z,32
2022-08-12T14:18:07.732Z,32
2022-08-12T14:24:08.192Z,33
2022-08-12T14:28:06.820Z,33
2022-08-12T14:33:11.251Z,33
2022-08-12T14:38:06.410Z,33
2022-08-12T14:43:06.592Z,32
2022-08-12T14:48:06.382Z,32
2022-08-12T14:58:07.116Z,32
2022-08-12T15:03:07.159Z,30
2022-08-12T15:08:07.617Z,30
2022-08-12T15:13:08.338Z,30
2022-08-12T15:18:07.225Z,30
2022-08-12T15:23:21.725Z,29
2022-08-12T15:28:21.270Z,29
2022-08-12T15:33:18.893Z,31
2022-08-12T15:38:14.746Z,31
2022-08-12T15:43:09.471Z,30
2022-08-12T15:48:20.722Z,30
2022-08-12T15:53:15.067Z,30
2022-08-12T15:58:06.717Z,30
2022-08-12T16:03:14.393Z,30
2022-08-12T16:08:07.856Z,30
2022-08-12T16:13:06.815Z,31
2022-08-12T16:18:26.524Z,31
2022-08-12T16:23:55.263Z,32
2022-08-12T16:28:08.209Z,32
2022-08-12T16:33:06.717Z,31
2022-08-12T16:38:29.035Z,31
2022-08-12T16:43:13.671Z,33
2022-08-12T16:48:06.917Z,33
2022-08-12T16:53:07.435Z,40
2022-08-12T16:58:30.570Z,40
2022-08-12T17:03:06.303Z,41
2022-08-12T17:08:06.780Z,41
2022-08-12T17:13:10.776Z,42
2022-08-12T17:18:57.148Z,42
2022-08-12T17:23:13.868Z,43
2022-08-12T17:28:06.094Z,43
2022-08-12T17:33:07.718Z,44
2022-08-12T17:38:06.204Z,44
2022-08-12T17:43:59.043Z,44
2022-08-12T17:48:06.320Z,44
2022-08-12T17:53:10.921Z,46
2022-08-12T17:58:13.968Z,46
2022-08-12T18:03:06.299Z,47
2022-08-12T18:08:10.377Z,47
2022-08-12T18:13:06.765Z,48
2022-08-12T18:18:19.769Z,48
2022-08-12T18:23:07.721Z,49
2022-08-12T18:28:30.827Z,49
2022-08-12T18:33:12.281Z,51
2022-08-12T18:38:07.678Z,51
2022-08-12T18:43:15.504Z,52
2022-08-12T18:48:06.582Z,52
2022-08-12T18:53:06.663Z,55
2022-08-12T18:58:10.283Z,55
2022-08-12T19:03:39.471Z,55
2022-08-12T19:08:06.430Z,55
2022-08-12T19:13:08.409Z,57
2022-08-12T19:18:06.872Z,57
2022-08-12T19:23:21.359Z,58
2022-08-12T19:28:06.981Z,58
2022-08-12T19:33:06.124Z,60
2022-08-12T19:38:07.347Z,60
2022-08-12T19:43:20.986Z,61
2022-08-12T19:48:17.707Z,61
2022-08-12T19:53:09.467Z,63
2022-08-12T19:58:18.106Z,63
2022-08-12T20:03:06.484Z,63
2022-08-12T20:08:08.297Z,63
2022-08-12T20:13:26.742Z,64
2022-08-12T20:18:43.820Z,64
2022-08-12T20:23:09.141Z,65
2022-08-12T20:28:08.430Z,65
2022-08-12T20:33:23.063Z,66
2022-08-12T20:38:27.752Z,66
2022-08-12T20:43:07.007Z,67
2022-08-12T20:48:07.304Z,67
2022-08-12T20:53:18.605Z,68
2022-08-12T20:58:07.036Z,68
2022-08-12T21:03:07.955Z,68
2022-08-12T21:08:11.998Z,68
2022-08-12T21:13:21.004Z,69
2022-08-12T21:18:28.679Z,69
2022-08-12T21:23:07.325Z,69
2022-08-12T21:28:06.784Z,69
2022-08-12T21:33:16.852Z,70
2022-08-12T21:38:07.401Z,70
2022-08-12T21:43:06.226Z,71
2022-08-12T21:48:07.870Z,71
2022-08-12T21:53:10.858Z,72
2022-08-12T21:58:10.922Z,72
2022-08-12T22:03:08.157Z,71
2022-08-12T22:08:08.618Z,71
2022-08-12T22:13:06.183Z,71
2022-08-12T22:18:07.818Z,71
2022-08-12T22:23:28.401Z,72
2022-08-12T22:28:07.293Z,72
2022-08-12T22:33:18.265Z,73
2022-08-12T22:38:11.122Z,73
2022-08-12T22:43:06.350Z,74
2022-08-12T22:48:07.812Z,74
2022-08-12T22:53:06.901Z,75
2022-08-12T22:58:12.723Z,75
2022-08-12T23:03:06.432Z,76
2022-08-12T23:08:17.633Z,76
2022-08-12T23:13:08.267Z,76
2022-08-12T23:18:10.497Z,76
2022-08-12T23:23:09.466Z,77
2022-08-12T23:28:31.251Z,77
2022-08-12T23:33:59.755Z,78
2022-08-12T23:38:08.394Z,78
2022-08-12T23:43:12.533Z,79
2022-08-12T23:48:06.915Z,79
2022-08-12T23:53:23.011Z,79
2022-08-12T23:58:26.757Z,79
